Hudson, Florida
Current Conditions -  °F | °C
As of 3:53 AM on Monday 22 Dec 2014 (Local Time) from KBKV Reporting Station
Overcast Overcast  
Wind Chill: 65°   Ceiling: 1700
Heat Index: 65°   Visibility: 9mi
Dew Point: 63°   Wind: 8mph
Humidity: 93%   Direction: 90°E
Pressure: 30.01"   Gusts: NA
Location:  28.36°N, 82.69°W
Report Text: KBKV 220853Z AUTO 09007KT 9SM BKN017 BKN026 OVC041 18/17 A3001 RMK AO2 RAE05 SLP159 P0000 60009 T01830172 56013
Loading
Personal Weather Stations






























Interactive Weather Map New forecast layout! Learn more

10-Day Weather Forecast

Advertisements
Track Severe Weather on mobile